Time;durP1;ratioP1;P1;durP2;ratioP2;P2;SDS_P1;SDS_P2;PMS_P1;PMS_P2;Temp;Humidity;BMP_temperature;BMP_pressure;BME280_temperature;BME280_humidity;BME280_pressure;Samples;Min_cycle;Max_cycle;Signal;HPM_P1;HPM_P2
2022/11/07 05:58:52;;;;;;;8.70;1.75;;;;;;;9.01;93.71;100367.13;5102969;27;20411;-76
2022/11/07 06:12:41;;;;;;;7.38;1.70;;;;;;;9.18;93.90;100368.91;6179078;22;2692816;-76
2022/11/07 06:26:08;;;;;;;5.10;1.90;;;;;;;9.31;93.31;100378.63;6217445;23;20104;-73
2022/11/07 06:39:37;;;;;;;8.48;2.00;;;;;;;9.35;94.30;100399.38;5122573;27;20382;-72
2022/11/07 06:42:41;;;;;;;7.47;2.13;;;;;;;9.34;94.48;100390.69;5109957;28;20105;-72
2022/11/07 06:45:46;;;;;;;9.13;1.98;;;;;;;9.34;94.53;100393.31;5109469;28;20038;-72
2022/11/07 06:48:49;;;;;;;7.63;1.83;;;;;;;9.49;93.94;100400.38;5086906;28;20043;-72
2022/11/07 06:51:52;;;;;;;7.72;1.90;;;;;;;9.56;93.08;100395.69;5103304;28;20085;-72
2022/11/07 06:54:58;;;;;;;5.22;1.90;;;;;;;9.35;93.83;100402.84;5105539;28;20050;-72
2022/11/07 06:58:03;;;;;;;7.93;2.63;;;;;;;9.53;93.39;100412.34;5104713;28;20402;-72
2022/11/07 07:01:11;;;;;;;9.52;3.67;;;;;;;9.32;94.49;100413.44;5105331;28;20054;-72
2022/11/07 07:04:43;;;;;;;8.27;2.85;;;;;;;9.48;94.27;100419.59;5123146;28;20050;-72
2022/11/07 07:07:46;;;;;;;9.98;2.08;;;;;;;9.64;93.94;100422.28;5102950;28;20118;-72
2022/11/07 07:10:50;;;;;;;9.90;2.38;;;;;;;9.70;93.79;100418.50;5107359;28;20326;-72
2022/11/07 07:13:55;;;;;;;7.45;1.60;;;;;;;9.70;93.96;100418.50;5126534;28;20046;-73
2022/11/07 07:16:59;;;;;;;7.82;2.08;;;;;;;9.77;94.01;100419.91;5120079;28;20398;-74
2022/11/07 07:20:04;;;;;;;11.65;1.67;;;;;;;9.84;93.75;100428.25;5105276;28;20122;-73
2022/11/07 07:23:07;;;;;;;6.78;1.75;;;;;;;9.81;94.31;100426.66;5104981;28;20067;-72
2022/11/07 07:26:13;;;;;;;6.80;1.88;;;;;;;9.88;94.11;100425.41;5114500;28;20408;-73
2022/11/07 07:29:16;;;;;;;8.30;2.30;;;;;;;9.97;94.10;100435.38;5124400;28;20538;-73
2022/11/07 07:32:20;;;;;;;;;;;;;;;9.99;94.40;100437.94;5110825;28;20050;-73
2022/11/07 07:35:23;;;;;;;5.65;1.40;;;;;;;10.04;93.95;100430.69;5104463;28;20293;-73
2022/11/07 07:38:27;;;;;;;4.72;1.30;;;;;;;9.65;97.41;100436.19;5113543;28;20050;-72
2022/11/07 07:41:30;;;;;;;7.78;1.70;;;;;;;9.78;97.25;100438.09;5111857;28;20613;-73
2022/11/07 07:45:21;;;;;;;7.20;1.60;;;;;;;9.76;97.57;100439.94;5110803;28;20135;-72
2022/11/07 07:48:24;;;;;;;6.03;1.98;;;;;;;9.91;97.35;100438.31;5096990;28;20109;-76
2022/11/07 07:51:28;;;;;;;5.55;2.20;;;;;;;9.97;97.04;100440.59;5110021;28;20046;-76
2022/11/07 07:54:32;;;;;;;6.70;1.90;;;;;;;10.18;95.70;100432.59;5108689;28;20144;-76
2022/11/07 07:57:42;;;;;;;10.05;2.95;;;;;;;10.27;94.78;100434.75;5108602;28;20038;-76
2022/11/07 08:00:45;;;;;;;7.00;2.90;;;;;;;10.27;95.16;100439.97;5098225;28;20047;-76
2022/11/07 08:03:49;;;;;;;7.57;2.65;;;;;;;10.31;95.08;100451.13;5090518;28;20170;-75
2022/11/07 08:06:53;;;;;;;6.68;2.00;;;;;;;10.29;95.21;100453.81;5091586;28;20116;-75
2022/11/07 08:09:56;;;;;;;8.20;2.22;;;;;;;10.26;95.46;100448.75;5093487;28;20059;-75
2022/11/07 08:13:00;;;;;;;9.52;3.95;;;;;;;10.27;96.47;100442.59;5093087;28;20079;-75
2022/11/07 08:16:06;;;;;;;7.25;2.22;;;;;;;10.27;97.09;100445.19;5093463;28;20082;-74
2022/11/07 08:19:10;;;;;;;7.20;1.63;;;;;;;10.31;97.39;100444.13;5094716;28;20088;-74
2022/11/07 08:22:13;;;;;;;7.97;2.05;;;;;;;10.46;96.97;100450.31;5094383;28;20062;-74
2022/11/07 08:25:16;;;;;;;7.03;1.95;;;;;;;10.63;95.84;100452.03;5094277;28;20567;-74
2022/11/07 08:28:23;;;;;;;7.30;1.63;;;;;;;10.77;94.87;100453.91;5094192;28;20051;-74
2022/11/07 08:31:27;;;;;;;9.48;2.33;;;;;;;10.86;93.05;100442.94;5094453;28;20414;-74
2022/11/07 08:34:30;;;;;;;6.35;1.60;;;;;;;11.26;91.46;100445.94;5093686;28;20509;-83
2022/11/07 08:37:33;;;;;;;10.55;2.10;;;;;;;11.47;85.29;100443.91;5093724;28;20051;-81
2022/11/07 08:40:36;;;;;;;7.35;1.52;;;;;;;11.60;83.63;100452.75;5094029;28;20139;-81
2022/11/07 08:43:40;;;;;;;10.80;1.90;;;;;;;11.62;82.79;100453.50;5094433;28;20055;-76
2022/11/07 08:46:43;;;;;;;8.40;2.20;;;;;;;11.68;81.82;100453.16;5092215;28;20502;-77
2022/11/07 08:49:49;;;;;;;5.70;1.88;;;;;;;11.69;82.26;100457.44;5109452;28;20505;-77
2022/11/07 08:52:52;;;;;;;7.90;2.00;;;;;;;11.69;85.12;100457.44;5109015;28;20438;-81
2022/11/07 08:56:07;;;;;;;13.57;3.15;;;;;;;11.73;84.22;100458.94;5109445;28;20127;-80
2022/11/07 08:59:10;;;;;;;9.00;1.70;;;;;;;11.67;82.66;100461.09;5110724;28;20085;-80
2022/11/07 09:02:14;;;;;;;8.43;2.05;;;;;;;11.69;82.51;100467.94;5111399;28;20054;-80
2022/11/07 09:05:17;;;;;;;9.70;2.80;;;;;;;11.65;82.57;100469.03;5113689;28;20047;-80
2022/11/07 09:08:21;;;;;;;9.82;2.45;;;;;;;11.70;82.37;100466.97;5113330;28;20442;-80
2022/11/07 09:11:25;;;;;;;8.73;2.63;;;;;;;11.70;82.97;100472.22;5112577;28;20078;-80
2022/11/07 09:14:29;;;;;;;10.55;2.63;;;;;;;11.64;82.41;100480.44;5113691;28;20047;-80
2022/11/07 09:17:33;;;;;;;11.15;2.15;;;;;;;11.64;82.51;100464.72;5113656;28;20664;-80
2022/11/07 09:20:36;;;;;;;5.72;1.60;;;;;;;11.64;81.97;100472.56;5113371;28;20089;-79
2022/11/07 09:23:40;;;;;;;8.77;1.75;;;;;;;11.68;82.90;100478.47;5113299;28;20042;-79
2022/11/07 09:26:43;;;;;;;10.23;2.10;;;;;;;11.69;82.58;100478.41;5113504;28;20120;-79
2022/11/07 09:29:47;;;;;;;9.23;2.30;;;;;;;11.74;82.53;100475.50;5114136;28;20554;-78
2022/11/07 09:32:53;;;;;;;;;;;;;;;11.71;82.32;100480.91;5115914;28;20050;-81
2022/11/07 09:36:01;;;;;;;8.88;1.98;;;;;;;11.73;82.40;100477.28;5113901;28;20338;-81
2022/11/07 09:39:05;;;;;;;9.82;1.88;;;;;;;11.73;82.89;100477.28;5113735;28;20085;-81
2022/11/07 09:42:27;;;;;;;11.88;4.32;;;;;;;11.77;82.58;100477.94;5114180;28;20050;-81
2022/11/07 09:45:42;;;;;;;9.70;2.08;;;;;;;11.78;82.88;100482.28;5114093;28;20055;-81
2022/11/07 09:48:53;;;;;;;9.75;2.38;;;;;;;11.81;82.96;100482.09;5113967;28;20169;-81
2022/11/07 09:52:04;;;;;;;9.20;1.88;;;;;;;11.81;82.51;100485.56;5113874;28;20568;-81
2022/11/07 09:55:16;;;;;;;9.13;2.40;;;;;;;11.83;82.70;100483.66;5113759;28;20046;-81
2022/11/07 09:58:29;;;;;;;10.57;1.87;;;;;;;11.84;82.79;100485.41;5113698;28;20481;-81
2022/11/07 10:01:32;;;;;;;10.73;1.60;;;;;;;11.84;83.20;100482.78;5113707;28;20349;-80
2022/11/07 10:04:35;;;;;;;;;;;;;;;11.89;82.83;100482.50;5114098;28;20912;-80
2022/11/07 10:07:42;;;;;;;8.07;1.55;;;;;;;11.99;82.93;100481.03;5113622;28;19923;-80
2022/11/07 10:11:07;;;;;;;8.43;2.10;;;;;;;12.02;82.67;100487.88;5113977;28;20455;-80
2022/11/07 10:14:30;;;;;;;11.52;1.63;;;;;;;12.14;81.94;100494.19;5112767;28;20401;-80
2022/11/07 10:17:40;;;;;;;6.88;2.00;;;;;;;12.19;81.98;100502.59;5113128;28;20042;-80
2022/11/07 10:21:02;;;;;;;9.35;1.58;;;;;;;12.32;81.32;100498.34;5112387;28;20096;-81
2022/11/07 10:24:30;;;;;;;7.70;2.20;;;;;;;12.47;80.87;100497.38;5112727;28;20135;-80
2022/11/07 10:27:34;;;;;;;6.53;1.70;;;;;;;12.59;80.90;100498.44;5088014;28;20096;-78
2022/11/07 10:30:38;;;;;;;5.95;1.55;;;;;;;12.56;80.17;100504.69;5096007;28;20120;-78
2022/11/07 10:33:55;;;;;;;8.63;1.75;;;;;;;12.60;80.51;100494.88;5107406;28;20050;-79
2022/11/07 10:36:59;;;;;;;10.05;1.63;;;;;;;12.61;80.59;100504.44;5108090;28;20058;-79
2022/11/07 10:40:11;;;;;;;;;;;;;;;12.67;80.37;100517.19;5103323;28;20062;-79
2022/11/07 10:43:39;;;;;;;8.52;2.60;;;;;;;12.62;81.00;100518.38;5086650;28;20008;-78
2022/11/07 10:46:46;;;;;;;7.15;1.55;;;;;;;12.61;80.40;100519.34;5083259;28;20056;-80
2022/11/07 10:49:58;;;;;;;10.85;6.53;;;;;;;12.57;80.48;100518.66;5086789;28;20097;-79
2022/11/07 10:53:08;;;;;;;7.32;2.63;;;;;;;12.65;80.50;100523.47;5105180;28;20042;-78
2022/11/07 10:56:18;;;;;;;9.55;2.88;;;;;;;12.66;80.49;100525.13;5086710;28;20112;-78
2022/11/07 10:59:27;;;;;;;9.75;2.50;;;;;;;12.66;79.78;100519.88;5086834;28;20563;-78
2022/11/07 11:20:39;;;;;;;8.98;2.60;;;;;;;12.66;79.68;100494.50;5167322;27;20154;-79
2022/11/07 11:23:47;;;;;;;8.57;3.25;;;;;;;12.76;79.45;100494.75;5138622;27;20054;-79
2022/11/07 11:26:52;;;;;;;8.73;2.30;;;;;;;12.89;78.92;100484.34;5113470;28;20104;-79
2022/11/07 11:30:16;;;;;;;10.65;3.17;;;;;;;12.99;78.24;100482.84;5125455;28;20043;-80
2022/11/07 11:33:25;;;;;;;8.43;2.38;;;;;;;12.94;78.57;100477.03;5125456;28;20046;-80
2022/11/07 11:36:37;;;;;;;14.95;5.28;;;;;;;12.87;79.08;100470.50;5125306;28;20107;-79
2022/11/07 11:40:06;;;;;;;14.50;5.68;;;;;;;12.83;78.60;100469.84;5125337;28;20058;-80
2022/11/07 11:43:31;;;;;;;7.93;1.98;;;;;;;12.77;78.75;100470.22;5126330;28;20156;-79
2022/11/07 11:59:04;;;;;;;9.05;2.22;;;;;;;12.76;78.88;100466.78;5124938;27;20374;-79
2022/11/07 12:02:26;;;;;;;7.30;2.83;;;;;;;12.83;78.63;100468.97;5125524;28;20104;-81
2022/11/07 12:16:23;;;;;;;10.32;2.17;;;;;;;12.86;78.82;100464.41;5145031;27;20374;-81
2022/11/07 12:19:34;;;;;;;10.10;2.40;;;;;;;12.90;78.36;100457.19;5145974;27;20064;-78
2022/11/07 12:22:38;;;;;;;9.00;2.03;;;;;;;13.04;77.34;100451.91;5147434;27;20131;-80
2022/11/07 12:26:09;;;;;;;10.98;2.33;;;;;;;13.24;76.90;100456.75;5146891;27;20075;-79
2022/11/07 12:30:04;;;;;;;7.68;2.53;;;;;;;13.30;76.55;100444.16;5146843;27;20506;-79
2022/11/07 12:33:18;;;;;;;5.82;1.95;;;;;;;13.33;76.90;100450.06;5129673;27;20037;-78
2022/11/07 12:36:38;;;;;;;11.00;1.75;;;;;;;13.29;76.47;100455.63;5137949;27;20183;-78
2022/11/07 12:40:07;;;;;;;9.85;2.55;;;;;;;13.31;76.17;100445.88;5144162;27;20085;-78
2022/11/07 12:43:32;;;;;;;7.80;2.08;;;;;;;13.25;76.92;100447.94;5147733;27;20601;-77
2022/11/07 12:47:17;;;;;;;9.88;2.30;;;;;;;13.15;76.68;100451.22;5147067;27;20050;-76
2022/11/07 12:50:52;;;;;;;7.65;1.77;;;;;;;13.15;76.80;100444.19;5068518;27;20098;-76
2022/11/07 12:54:32;;;;;;;7.40;1.63;;;;;;;13.14;77.54;100452.16;5106686;27;20053;-76
2022/11/07 12:57:38;;;;;;;7.07;1.63;;;;;;;13.12;77.48;100452.25;5128826;28;20038;-76
2022/11/07 13:00:43;;;;;;;12.77;1.98;;;;;;;13.14;77.31;100449.53;5134049;27;20041;-75
2022/11/07 13:04:09;;;;;;;8.82;1.42;;;;;;;13.12;77.97;100440.91;5145777;27;20127;-76
2022/11/07 13:07:46;;;;;;;9.02;1.90;;;;;;;13.10;77.99;100445.41;5145635;27;20111;-77
2022/11/07 13:10:56;;;;;;;8.00;1.85;;;;;;;13.16;76.92;100451.13;5145163;27;20130;-76
2022/11/07 13:14:03;;;;;;;8.70;1.98;;;;;;;13.14;77.02;100452.97;5143237;27;20053;-77
2022/11/07 13:17:39;;;;;;;8.30;1.90;;;;;;;13.05;78.96;100448.34;5110382;28;20114;-77
2022/11/07 13:21:20;;;;;;;8.75;2.28;;;;;;;12.97;80.32;100461.09;5110021;28;20046;-77
2022/11/07 13:24:23;;;;;;;8.18;2.10;;;;;;;12.89;82.42;100458.97;5108960;27;20054;-76
2022/11/07 13:27:33;;;;;;;7.00;1.55;;;;;;;12.79;83.62;100463.09;5105769;28;20096;-76
2022/11/07 13:30:39;;;;;;;6.57;1.70;;;;;;;12.74;83.97;100460.75;4744724;28;9999919;-77
2022/11/07 13:33:42;;;;;;;9.63;2.20;;;;;;;12.71;84.78;100462.75;5110006;28;20041;-76
2022/11/07 13:36:47;;;;;;;;;;;;;;;12.75;84.29;100470.31;5110989;28;20480;-76
2022/11/07 13:40:00;;;;;;;10.35;1.80;;;;;;;12.73;84.69;100474.84;5119890;27;20434;-77
2022/11/07 13:43:44;;;;;;;6.63;1.77;;;;;;;12.72;86.42;100470.50;5141694;27;20049;-75
2022/11/07 13:46:52;;;;;;;7.15;1.67;;;;;;;12.72;86.36;100472.28;5103851;28;20050;-76
2022/11/07 13:50:06;;;;;;;10.35;2.40;;;;;;;12.80;86.72;100476.13;5098108;28;20097;-77
2022/11/07 13:54:02;;;;;;;10.52;2.05;;;;;;;12.89;85.46;100473.84;5090721;28;20578;-77
2022/11/07 13:57:14;;;;;;;8.82;1.85;;;;;;;12.92;86.67;100478.91;5062712;28;20132;-78
2022/11/07 14:00:19;;;;;;;12.80;2.33;;;;;;;12.83;88.67;100475.09;5110518;28;20074;-77
2022/11/07 14:03:33;;;;;;;9.60;1.90;;;;;;;12.83;89.13;100479.47;5106026;28;20082;-78
2022/11/07 14:06:43;;;;;;;12.93;2.65;;;;;;;12.97;89.55;100471.59;5109008;28;20201;-78
2022/11/07 14:09:57;;;;;;;8.25;2.85;;;;;;;12.86;89.70;100485.41;5110358;28;20047;-78
2022/11/07 14:13:08;;;;;;;7.75;1.80;;;;;;;12.90;90.20;100480.81;5109758;28;20055;-78
2022/11/07 14:16:18;;;;;;;11.13;2.33;;;;;;;12.97;90.73;100488.19;5110179;28;20070;-80
2022/11/07 14:19:25;;;;;;;9.57;1.88;;;;;;;12.92;90.65;100490.28;5110529;28;20051;-79
2022/11/07 14:22:29;;;;;;;7.82;1.77;;;;;;;12.79;90.51;100489.31;5110024;28;20050;-80
2022/11/07 14:25:34;;;;;;;6.72;1.95;;;;;;;12.74;90.73;100497.50;5110561;27;20107;-78
2022/11/07 14:28:39;;;;;;;8.45;2.22;;;;;;;12.72;90.27;100504.59;5109395;28;20042;-78
2022/11/07 14:31:44;;;;;;;8.10;1.80;;;;;;;12.82;89.86;100498.78;5109996;28;20507;-78
2022/11/07 14:34:49;;;;;;;9.43;2.13;;;;;;;12.84;89.88;100502.19;5108729;28;20047;-79
2022/11/07 14:38:21;;;;;;;9.98;2.38;;;;;;;12.83;91.30;100497.84;5088645;28;20526;-79
2022/11/07 14:41:24;;;;;;;14.43;2.40;;;;;;;12.87;91.55;100502.00;5103081;27;20070;-77
2022/11/07 14:44:37;;;;;;;8.45;1.88;;;;;;;12.85;91.90;100495.97;5097861;28;20136;-78
2022/11/07 14:47:43;;;;;;;8.57;2.65;;;;;;;12.82;91.59;100493.56;5094536;28;20047;-78
2022/11/07 14:50:47;;;;;;;14.57;4.00;;;;;;;12.76;91.72;100502.63;5096578;28;20050;-76
2022/11/07 14:54:03;;;;;;;9.43;1.50;;;;;;;12.91;92.91;100504.31;5099114;28;20133;-79
2022/11/07 14:57:11;;;;;;;12.88;2.25;;;;;;;12.88;91.36;100499.25;5096078;28;20077;-79
2022/11/07 15:00:18;;;;;;;8.75;2.00;;;;;;;12.91;90.56;100492.97;5097390;28;20057;-79
2022/11/07 15:03:32;;;;;;;14.98;2.60;;;;;;;12.89;89.99;100494.84;5098850;28;20557;-78
2022/11/07 15:06:40;;;;;;;;;;;;;;;12.78;87.24;100496.34;5098637;28;20093;-78
2022/11/07 15:10:16;;;;;;;9.05;1.90;;;;;;;12.76;86.82;100495.63;5097188;27;19919;-78
2022/11/07 15:13:23;;;;;;;12.52;3.47;;;;;;;12.77;87.20;100501.72;5092855;28;20553;-79
2022/11/07 15:16:36;;;;;;;9.75;2.95;;;;;;;12.84;88.60;100496.94;5095181;28;20043;-79
2022/11/07 15:19:55;;;;;;;9.52;2.63;;;;;;;12.73;86.58;100489.69;5100325;28;20138;-80
2022/11/07 15:23:02;;;;;;;8.45;1.75;;;;;;;12.69;86.44;100491.69;5105250;27;20066;-78
2022/11/07 15:26:05;;;;;;;8.50;1.75;;;;;;;12.74;88.55;100497.50;5089223;28;20070;-78
2022/11/07 15:29:20;;;;;;;17.15;1.98;;;;;;;12.85;88.84;100482.88;5098665;28;20074;-78
2022/11/07 15:32:27;;;;;;;11.10;2.20;;;;;;;12.85;88.14;100478.44;5096488;28;20046;-79
2022/11/07 15:35:30;;;;;;;7.78;2.30;;;;;;;12.67;88.41;100483.06;5103656;28;20046;-72
2022/11/07 15:38:34;;;;;;;8.25;2.05;;;;;;;12.64;90.46;100490.31;5100334;28;20093;-79
2022/11/07 15:41:37;;;;;;;10.35;2.80;;;;;;;12.68;89.21;100490.00;5099524;28;20070;-81
2022/11/07 15:44:41;;;;;;;8.98;3.08;;;;;;;12.71;88.47;100489.81;5100818;28;20043;-79
2022/11/07 15:47:45;;;;;;;11.02;3.83;;;;;;;12.70;88.51;100500.38;5103631;28;20043;-79
2022/11/07 15:50:50;;;;;;;12.93;2.58;;;;;;;12.65;88.59;100498.06;5101121;28;20058;-80
2022/11/07 15:53:56;;;;;;;6.53;2.33;;;;;;;12.67;88.26;100498.81;5101770;28;20087;-82
2022/11/07 15:57:03;;;;;;;8.48;1.90;;;;;;;12.51;87.29;100487.59;5102044;28;20047;-81
2022/11/07 16:00:20;;;;;;;5.95;1.40;;;;;;;12.46;89.77;100498.34;5103599;28;20046;-80
2022/11/07 16:03:26;;;;;;;10.38;2.42;;;;;;;12.42;86.73;100496.00;5100799;28;20046;-81
2022/11/07 16:06:30;;;;;;;10.48;2.88;;;;;;;12.51;85.48;100492.81;5098454;28;20435;-80
2022/11/07 16:09:33;;;;;;;11.88;2.97;;;;;;;12.57;86.00;100493.28;5093125;28;20509;-79
2022/11/07 16:12:37;;;;;;;7.78;1.77;;;;;;;12.61;84.99;100493.09;5093027;28;20118;-79
2022/11/07 16:15:50;;;;;;;13.98;1.73;;;;;;;12.70;86.17;100493.38;5092319;28;20603;-80
2022/11/07 16:18:54;;;;;;;12.05;3.00;;;;;;;12.65;87.05;100498.06;5093297;28;20050;-79
2022/11/07 16:21:58;;;;;;;9.73;2.75;;;;;;;12.55;85.27;100500.41;5091699;28;20404;-80
2022/11/07 16:25:01;;;;;;;;;;;;;;;12.53;85.71;100504.03;5104534;28;20110;-79
2022/11/07 16:28:05;;;;;;;9.15;1.60;;;;;;;12.62;83.53;100511.34;5113634;28;20340;-80
2022/11/07 16:31:09;;;;;;;7.43;2.20;;;;;;;12.70;83.26;100519.63;5092262;28;20047;-81
2022/11/07 16:34:12;;;;;;;9.52;2.83;;;;;;;12.66;83.71;100510.22;5093380;28;20063;-81
2022/11/07 16:37:18;;;;;;;8.05;2.40;;;;;;;12.67;83.60;100506.69;5092961;28;20050;-81
2022/11/07 16:40:22;;;;;;;9.55;2.22;;;;;;;12.71;83.69;100516.06;5092670;28;20043;-81
2022/11/07 16:43:27;;;;;;;6.97;1.65;;;;;;;12.70;84.16;100517.00;5092448;28;20507;-83
2022/11/07 16:46:37;;;;;;;10.38;3.90;;;;;;;12.72;83.69;100506.41;5129665;28;20054;-82
2022/11/07 16:49:42;;;;;;;9.70;3.22;;;;;;;12.77;83.56;100501.72;5133931;27;20115;-84
2022/11/07 16:52:47;;;;;;;11.30;3.67;;;;;;;12.73;83.91;100493.19;5137295;27;20050;-83
2022/11/07 16:56:04;;;;;;;9.52;2.65;;;;;;;12.70;83.60;100496.00;5136902;27;20042;-85
2022/11/07 16:59:19;;;;;;;9.35;2.70;;;;;;;12.60;84.35;100494.88;5136380;27;20125;-82
2022/11/07 17:02:25;;;;;;;10.15;3.78;;;;;;;12.65;84.31;100492.81;5136886;27;20057;-82
2022/11/07 17:05:29;;;;;;;8.88;3.80;;;;;;;12.62;84.15;100503.50;5136173;27;20042;-81
2022/11/07 17:08:40;;;;;;;8.50;2.70;;;;;;;12.58;84.17;100499.38;5136327;27;20046;-80
2022/11/07 17:11:44;;;;;;;8.30;2.45;;;;;;;12.59;84.48;100503.69;5137209;27;20510;-80
2022/11/07 17:14:49;;;;;;;8.25;2.65;;;;;;;12.47;84.97;100499.16;5136859;27;20461;-81
2022/11/07 17:17:52;;;;;;;;;;;;;;;12.48;84.93;100500.88;5137559;27;20053;-82
2022/11/07 17:20:55;;;;;;;;;;;;;;;12.38;86.18;100497.97;5137722;27;19927;-83
2022/11/07 17:24:02;;;;;;;14.30;4.15;;;;;;;12.41;85.56;100499.53;5136698;27;19984;-83
2022/11/07 17:27:24;;;;;;;9.75;2.75;;;;;;;12.25;87.39;100500.47;5136017;27;20038;-81
2022/11/07 17:30:32;;;;;;;10.00;2.22;;;;;;;12.19;87.57;100498.22;5136750;27;20050;-81
2022/11/07 17:33:36;;;;;;;10.70;2.83;;;;;;;12.20;87.53;100501.69;5135937;27;20073;-82
2022/11/07 17:36:45;;;;;;;19.30;10.23;;;;;;;12.12;87.45;100504.75;5136743;27;20415;-81
2022/11/07 17:39:52;;;;;;;12.60;4.13;;;;;;;12.25;86.49;100505.72;5134453;27;20084;-81
2022/11/07 17:42:57;;;;;;;9.27;2.85;;;;;;;12.12;87.47;100506.53;5135969;27;20111;-81
2022/11/07 17:46:04;;;;;;;6.93;2.45;;;;;;;12.10;87.24;100510.09;5136476;27;20043;-81
2022/11/07 17:49:11;;;;;;;11.35;2.63;;;;;;;12.04;88.01;100520.09;5135932;27;20077;-82
2022/11/07 17:52:15;;;;;;;8.43;2.05;;;;;;;11.96;88.69;100509.19;5135884;27;20042;-82
2022/11/07 17:55:20;;;;;;;12.55;2.60;;;;;;;12.07;87.40;100512.88;5136082;27;20068;-81
2022/11/07 17:58:27;;;;;;;13.82;3.30;;;;;;;12.02;87.34;100517.53;5136109;27;20042;-81
2022/11/07 18:01:36;;;;;;;7.65;2.20;;;;;;;12.10;86.82;100522.34;5135184;27;20054;-81
2022/11/07 18:04:41;;;;;;;8.30;1.90;;;;;;;11.96;87.58;100514.44;5135601;27;20041;-82
2022/11/07 18:07:45;;;;;;;6.82;2.55;;;;;;;11.74;88.59;100520.91;5135778;27;20042;-81
2022/11/07 18:10:49;;;;;;;8.02;2.45;;;;;;;11.77;88.47;100520.72;5135658;27;20050;-79
2022/11/07 18:13:54;;;;;;;9.85;2.33;;;;;;;11.80;88.53;100525.75;5134466;27;20400;-80
2022/11/07 18:17:00;;;;;;;7.50;2.08;;;;;;;11.69;88.53;100528.16;5123035;27;20054;-79
2022/11/07 18:20:04;;;;;;;8.13;3.80;;;;;;;11.58;89.47;100525.28;5134436;27;20535;-79
2022/11/07 18:23:07;;;;;;;7.50;2.20;;;;;;;11.60;89.04;100526.06;5135298;27;20065;-78
2022/11/07 18:26:19;;;;;;;9.18;3.05;;;;;;;11.53;89.20;100522.94;5135123;27;20066;-79
2022/11/07 18:29:23;;;;;;;9.18;3.75;;;;;;;11.38;89.53;100521.19;5135274;27;20093;-80
2022/11/07 18:32:30;;;;;;;12.25;5.35;;;;;;;11.26;90.27;100520.09;5135314;27;20427;-80
2022/11/07 18:35:41;;;;;;;13.20;5.65;;;;;;;11.13;91.18;100519.06;5135077;27;20046;-82
2022/11/07 18:38:49;;;;;;;11.80;3.60;;;;;;;11.10;91.37;100520.09;5134094;27;20091;-81
2022/11/07 18:41:53;;;;;;;86.35;56.88;;;;;;;11.02;91.99;100522.28;5134770;27;20112;-80
2022/11/07 18:44:59;;;;;;;80.90;56.80;;;;;;;11.08;91.63;100521.13;5134937;27;20086;-80
2022/11/07 18:48:05;;;;;;;38.20;27.58;;;;;;;11.07;91.97;100520.28;5135182;27;20163;-80
2022/11/07 18:51:16;;;;;;;39.70;30.20;;;;;;;10.99;92.32;100511.97;5135210;27;20061;-80
2022/11/07 18:54:22;;;;;;;24.65;17.27;;;;;;;10.94;91.89;100512.25;5134300;27;20092;-80
2022/11/07 18:57:30;;;;;;;17.52;8.32;;;;;;;11.03;90.84;100510.88;5133949;27;20054;-82
2022/11/07 19:00:34;;;;;;;19.02;8.23;;;;;;;10.99;91.64;100511.16;5134972;27;20561;-82
2022/11/07 19:03:40;;;;;;;16.70;7.07;;;;;;;11.07;90.86;100514.16;5134030;27;20099;-81
2022/11/07 19:06:56;;;;;;;9.45;3.55;;;;;;;10.85;90.54;100510.13;5135023;27;20100;-81
2022/11/07 19:10:03;;;;;;;9.38;4.97;;;;;;;10.95;90.58;100518.31;5134096;27;20139;-80
2022/11/07 19:13:08;;;;;;;11.10;3.03;;;;;;;10.79;90.31;100527.91;5133536;27;20589;-82
2022/11/07 19:16:20;;;;;;;7.80;3.78;;;;;;;10.82;90.24;100536.44;5124199;27;20577;-81
2022/11/07 19:19:45;;;;;;;24.88;10.88;;;;;;;10.72;90.52;100543.09;5111292;28;20469;-81
2022/11/07 19:22:49;;;;;;;14.43;7.35;;;;;;;10.75;90.23;100540.28;5099345;28;20070;-80
2022/11/07 19:25:54;;;;;;;12.45;6.95;;;;;;;10.57;90.87;100541.25;5112433;28;20046;-81
2022/11/07 19:28:59;;;;;;;11.48;5.70;;;;;;;10.37;92.67;100540.53;5117585;28;20078;-80
2022/11/07 19:32:05;;;;;;;12.55;4.55;;;;;;;10.41;91.79;100536.81;5132556;28;20065;-81
2022/11/07 19:35:11;;;;;;;12.35;4.88;;;;;;;10.48;91.85;100537.34;5116319;28;20416;-80
2022/11/07 19:38:15;;;;;;;8.23;4.25;;;;;;;10.51;91.62;100520.66;5114978;28;20154;-80
2022/11/07 19:41:19;;;;;;;;;;;;;;;10.44;91.21;100526.22;5114390;28;20046;-80
2022/11/07 19:44:22;;;;;;;8.55;1.85;;;;;;;10.50;90.90;100529.41;5112766;28;19961;-81
2022/11/07 19:47:28;;;;;;;9.55;2.80;;;;;;;10.44;90.75;100534.06;5112807;28;20050;-78
2022/11/07 19:50:38;;;;;;;7.28;1.70;;;;;;;10.53;89.65;100530.13;5113483;28;20090;-80
2022/11/07 19:53:41;;;;;;;9.20;3.13;;;;;;;10.44;89.84;100527.97;5113988;28;20090;-78
2022/11/07 19:56:46;;;;;;;13.43;7.03;;;;;;;10.37;90.09;100529.19;5113338;28;20548;-78
2022/11/07 19:59:49;;;;;;;;;;;;;;;10.26;90.84;100537.59;5112865;28;20464;-78
2022/11/07 20:02:53;;;;;;;14.23;8.05;;;;;;;10.27;90.98;100536.66;5112204;28;19919;-78
2022/11/07 20:06:00;;;;;;;12.55;7.18;;;;;;;10.30;90.29;100536.50;5112904;28;20039;-77
2022/11/07 20:09:06;;;;;;;10.35;3.72;;;;;;;10.32;89.97;100546.91;5113150;28;20131;-79
2022/11/07 20:12:10;;;;;;;9.60;1.88;;;;;;;10.07;90.41;100547.25;5112434;28;20039;-78
2022/11/07 20:15:14;;;;;;;19.65;7.65;;;;;;;9.93;91.06;100554.00;5113251;28;20401;-78
2022/11/07 20:18:18;;;;;;;11.40;4.68;;;;;;;10.02;91.89;100540.50;5113228;28;20047;-78
2022/11/07 20:21:22;;;;;;;10.05;4.22;;;;;;;10.08;91.17;100541.09;5112509;28;20069;-78
2022/11/07 20:24:27;;;;;;;11.23;4.35;;;;;;;10.09;90.62;100541.03;5113122;28;20038;-78
2022/11/07 20:27:32;;;;;;;10.77;5.10;;;;;;;9.96;91.03;100535.56;5116236;28;20045;-78
2022/11/07 20:30:40;;;;;;;11.85;3.33;;;;;;;9.94;90.63;100540.03;5117218;28;20519;-78
2022/11/07 20:33:44;;;;;;;9.27;2.83;;;;;;;9.94;90.62;100537.41;5117076;28;20135;-78
2022/11/07 20:36:49;;;;;;;;;;;;;;;9.97;91.08;100541.63;5117770;28;20404;-78
2022/11/07 20:39:53;;;;;;;10.68;3.47;;;;;;;9.96;90.63;100538.19;5117220;28;20391;-78
2022/11/07 20:42:58;;;;;;;10.75;6.55;;;;;;;9.77;89.92;100540.00;5115657;28;20074;-78
2022/11/07 20:46:07;;;;;;;10.48;6.00;;;;;;;9.87;90.15;100536.03;5114501;28;20057;-78
2022/11/07 20:49:13;;;;;;;10.13;5.97;;;;;;;9.84;90.26;100540.56;5115957;28;20534;-77
2022/11/07 20:52:17;;;;;;;12.02;6.30;;;;;;;9.73;90.16;100538.44;5116229;28;20077;-77
2022/11/07 20:55:21;;;;;;;16.38;6.53;;;;;;;9.73;89.70;100538.44;5115847;28;20043;-77
2022/11/07 20:58:24;;;;;;;;;;;;;;;9.87;89.02;100541.25;5116904;28;20047;-77
2022/11/07 21:01:34;;;;;;;12.52;6.78;;;;;;;9.81;89.05;100541.53;5115690;28;19919;-78
2022/11/07 21:04:38;;;;;;;14.52;5.13;;;;;;;9.79;89.37;100559.03;5116355;28;20047;-78
2022/11/07 21:07:47;;;;;;;9.63;4.13;;;;;;;9.75;88.79;100550.53;5116615;28;20081;-78
2022/11/07 21:10:55;;;;;;;8.40;4.13;;;;;;;9.62;88.86;100548.56;5116461;28;20043;-79
2022/11/07 21:13:59;;;;;;;12.35;4.40;;;;;;;9.45;89.17;100542.41;5116616;28;20085;-77
2022/11/07 21:17:02;;;;;;;14.80;3.38;;;;;;;9.55;89.49;100538.44;5116406;28;20515;-77
2022/11/07 21:20:07;;;;;;;8.80;3.40;;;;;;;9.44;89.24;100539.84;5116381;28;20046;-78
2022/11/07 21:23:11;;;;;;;7.63;2.90;;;;;;;9.48;88.81;100539.66;5115256;28;20121;-78
2022/11/07 21:26:23;;;;;;;7.35;2.80;;;;;;;9.44;89.28;100537.25;5116251;28;20061;-77
2022/11/07 21:29:26;;;;;;;6.55;2.63;;;;;;;9.36;89.01;100550.66;5116108;28;20053;-77
2022/11/07 21:32:29;;;;;;;;;;;;;;;9.40;88.70;100552.19;5116458;28;20050;-77
2022/11/07 21:35:33;;;;;;;7.30;1.50;;;;;;;9.45;87.93;100545.00;5116064;28;19918;-78
2022/11/07 21:38:37;;;;;;;6.55;1.63;;;;;;;9.36;88.21;100555.88;5115967;28;20045;-78
2022/11/07 21:41:41;;;;;;;6.63;2.15;;;;;;;9.19;89.28;100554.06;5115009;28;20412;-78
2022/11/07 21:44:44;;;;;;;10.38;2.97;;;;;;;9.05;90.09;100557.28;5116094;28;20039;-78
2022/11/07 21:47:48;;;;;;;9.10;2.80;;;;;;;9.04;89.84;100563.41;5114912;28;20123;-77
2022/11/07 21:50:51;;;;;;;5.72;1.80;;;;;;;9.13;89.23;100543.91;5115750;28;20047;-77